Susquehanna — WDD9976 — position and weather

sailwx.info

Track history (hours):
 
Tides and Currents Weather Stations Pressure Air Temp Water Temp Dewpoint Dewpoint Depression Visibility Wind Speed Wind Dir Waves Ship Positions

Susquehanna

Owner: Vane Line Bunkering, Inc., Philadelphia, PA. More information available from US FCC via Universal Licensing System and Coast Guard Vessel Documentation Center.

Last reported at 2017-Jul-25 20:30 UTC. Time now 2017-Jul-25 20:46 UTC.
Position N 40°40' W 074°09'.

Length 28 m; draft 4.2 m.

Type: Tug. MMSI: 367318750.

Date/timePositionNaut miles runAvg speedWind from/ knotsBaromVisibWave heightAir tempDewpointWater temp
2017-Jul-25 20:30N 40°40' W 074°09'0 0.0
2017-Jul-25 20:00N 40°40' W 074°09'0 0.0
2017-Jul-25 19:30N 40°40' W 074°09'0 0.0
2017-Jul-25 19:00N 40°40' W 074°09'0 0.0
2017-Jul-25 18:30N 40°40' W 074°09'0 0.0
2017-Jul-25 18:00N 40°40' W 074°09'0 0.0
2017-Jul-25 17:30N 40°40' W 074°09'0 0.0
2017-Jul-25 17:00N 40°40' W 074°09'0 0.0
2017-Jul-25 16:30N 40°40' W 074°09'0 0.0
2017-Jul-25 16:00N 40°40' W 074°09'0 0.0
2017-Jul-25 15:30N 40°40' W 074°09'0 0.0
2017-Jul-25 15:00N 40°40' W 074°09'0 0.1
2017-Jul-25 14:00N 40°40' W 074°09'2 3.6
2017-Jul-25 13:30N 40°39' W 074°07'0 0.2
2017-Jul-25 13:00N 40°39' W 074°07'0 0.0
2017-Jul-25 12:30N 40°39' W 074°07'0 0.0
2017-Jul-25 12:00N 40°39' W 074°07'0 0.0
2017-Jul-25 11:30N 40°39' W 074°07'0 0.0
2017-Jul-25 11:00N 40°39' W 074°07'0 0.0
2017-Jul-25 10:30N 40°39' W 074°07'0 0.0
2017-Jul-25 10:00N 40°39' W 074°07'2 3.4
2017-Jul-25 09:30N 40°40' W 074°05'0 0.0
2017-Jul-25 09:00N 40°40' W 074°05'0 0.0
2017-Jul-25 08:30N 40°40' W 074°05'0 0.0
2017-Jul-25 08:00N 40°40' W 074°05'0 0.0
2017-Jul-25 07:30N 40°40' W 074°05'0 0.0
2017-Jul-25 07:00N 40°40' W 074°05'0 0.0
2017-Jul-25 06:30N 40°40' W 074°05'0 0.0
2017-Jul-25 06:00N 40°40' W 074°05'0 0.0
2017-Jul-25 05:30N 40°40' W 074°05'0 0.0
2017-Jul-25 05:00N 40°40' W 074°05'0 0.0
2017-Jul-25 04:30N 40°40' W 074°05'0 0.0
2017-Jul-25 04:00N 40°40' W 074°05'0 0.0
2017-Jul-25 03:30N 40°40' W 074°05'0 0.0
2017-Jul-25 03:00N 40°40' W 074°05'0 0.0
2017-Jul-25 02:30N 40°40' W 074°05'0 0.0
2017-Jul-25 02:00N 40°40' W 074°05'0 0.0
2017-Jul-25 01:30N 40°40' W 074°05'0 0.0
2017-Jul-25 01:00N 40°40' W 074°05'0 0.0
2017-Jul-25 00:30N 40°40' W 074°05'0 0.0
2017-Jul-25 00:00N 40°40' W 074°05'0 0.0
2017-Jul-24 23:30N 40°40' W 074°05'0 0.0
2017-Jul-24 23:01N 40°40' W 074°05'0 0.0
2017-Jul-24 22:30N 40°40' W 074°05'0 0.0
2017-Jul-24 22:01N 40°40' W 074°05'0 0.0
2017-Jul-24 21:30N 40°40' W 074°05'2 3.4
2017-Jul-24 21:00N 40°39' W 074°06'0 0.1
2017-Jul-24 20:31N 40°39' W 074°07'0 0.0
2017-Jul-24 20:00N 40°39' W 074°07'0 0.0
2017-Jul-24 19:30N 40°39' W 074°07'1 2.8
2017-Jul-24 19:00N 40°39' W 074°05'4 8.3
2017-Jul-24 18:30N 40°43' W 074°02'611.7
2017-Jul-24 18:00N 40°48' W 073°59'5 9.3
2017-Jul-24 17:30N 40°52' W 073°56'0 0.2
2017-Jul-24 17:00N 40°52' W 073°56'0 0.1
2017-Jul-24 16:30N 40°52' W 073°56'0 0.1
2017-Jul-24 16:00N 40°52' W 073°56'0 0.1
2017-Jul-24 13:00N 40°52' W 073°57'0 0.0
2017-Jul-24 12:30N 40°52' W 073°57'0 0.0
2017-Jul-24 11:59N 40°52' W 073°57'0 0.0
2017-Jul-24 11:30N 40°52' W 073°57'0 0.2
2017-Jul-24 11:00N 40°52' W 073°57'0 0.0
2017-Jul-24 10:30N 40°52' W 073°57'0 0.0
2017-Jul-24 10:00N 40°52' W 073°57'0 0.0
2017-Jul-24 09:30N 40°52' W 073°56'0 0.0
2017-Jul-24 09:00N 40°52' W 073°57'0 0.0
2017-Jul-24 08:30N 40°52' W 073°56'0 0.0
2017-Jul-24 08:00N 40°52' W 073°57'0 0.0
2017-Jul-24 07:30N 40°52' W 073°56'0 0.0
2017-Jul-24 07:00N 40°52' W 073°57'0 0.0
2017-Jul-24 06:30N 40°52' W 073°57'0 0.1
2017-Jul-24 06:00N 40°52' W 073°57'0 0.1
2017-Jul-24 05:30N 40°52' W 073°57'0 0.0
2017-Jul-24 05:00N 40°52' W 073°57'0 0.3
2017-Jul-24 04:30N 40°52' W 073°56'0 0.1
2017-Jul-24 04:00N 40°53' W 073°56'0 0.0
2017-Jul-24 03:30N 40°53' W 073°56'0 0.0
2017-Jul-24 03:00N 40°53' W 073°56'0 0.0
2017-Jul-24 02:30N 40°53' W 073°56'0 0.0
2017-Jul-24 02:00N 40°53' W 073°56'0 0.0
2017-Jul-24 01:30N 40°53' W 073°56'0 0.0
2017-Jul-24 01:00N 40°53' W 073°56'0 0.0
2017-Jul-24 00:30N 40°53' W 073°56'0 0.0
2017-Jul-24 00:00N 40°53' W 073°56'0 0.1
2017-Jul-23 23:30N 40°52' W 073°56'0 0.0
2017-Jul-23 23:00N 40°52' W 073°56'0 0.1
2017-Jul-23 22:30N 40°52' W 073°57'0 0.2
2017-Jul-23 22:00N 40°52' W 073°57'0 0.1
2017-Jul-23 21:30N 40°52' W 073°57'0 0.0
2017-Jul-23 21:00N 40°52' W 073°56'0 0.0
2017-Jul-23 20:30N 40°52' W 073°56'0 0.0
2017-Jul-23 20:00N 40°52' W 073°56'0 0.0
2017-Jul-23 19:30N 40°52' W 073°57'0 0.0
2017-Jul-23 19:00N 40°52' W 073°56'0 0.0
2017-Jul-23 18:20N 40°52' W 073°56'0 0.1
2017-Jul-23 17:49N 40°52' W 073°56'0 0.1
2017-Jul-23 17:07N 40°52' W 073°57'0 0.1
2017-Jul-23 16:54N 40°52' W 073°56'0 0.1
2017-Jul-23 16:25N 40°52' W 073°57'0 0.2
2017-Jul-23 16:00N 40°52' W 073°56'0 0.1
2017-Jul-23 15:30N 40°53' W 073°56'0 0.1
2017-Jul-23 15:00N 40°53' W 073°56'0 0.1
2017-Jul-23 14:30N 40°52' W 073°56'0 0.0
2017-Jul-23 14:00N 40°52' W 073°56'0 0.0
2017-Jul-23 13:30N 40°52' W 073°56'0 0.1
2017-Jul-23 13:00N 40°52' W 073°56'0 0.1
2017-Jul-23 12:29N 40°52' W 073°56'0 0.0
2017-Jul-23 12:00N 40°52' W 073°56'0 0.0
2017-Jul-23 11:30N 40°52' W 073°56'0 0.1
2017-Jul-23 11:00N 40°52' W 073°57'0 0.2
2017-Jul-23 10:30N 40°52' W 073°56'0 0.0
2017-Jul-23 10:00N 40°52' W 073°56'0 0.0
2017-Jul-23 09:30N 40°52' W 073°56'0 0.0
2017-Jul-23 09:00N 40°52' W 073°56'0 0.0
2017-Jul-23 08:30N 40°52' W 073°56'0 0.0
2017-Jul-23 08:00N 40°52' W 073°56'0 0.0
2017-Jul-23 07:30N 40°52' W 073°56'0 0.0
2017-Jul-23 07:00N 40°52' W 073°56'0 0.0
2017-Jul-23 06:30N 40°52' W 073°56'0 0.0
2017-Jul-23 06:00N 40°52' W 073°56'0 0.0
2017-Jul-23 05:30N 40°52' W 073°56'0 0.1
2017-Jul-23 04:59N 40°52' W 073°57'0 0.0
2017-Jul-23 04:29N 40°52' W 073°57'0 0.4
2017-Jul-23 04:01N 40°52' W 073°56'0 0.1
2017-Jul-23 03:30N 40°53' W 073°56'0 0.0
2017-Jul-23 03:00N 40°53' W 073°56'0 0.0
2017-Jul-23 02:30N 40°53' W 073°56'0 0.0
2017-Jul-23 02:00N 40°53' W 073°56'0 0.0
2017-Jul-23 01:30N 40°53' W 073°56'0 0.0
2017-Jul-23 01:00N 40°53' W 073°56'0 0.0
2017-Jul-23 00:30N 40°53' W 073°56'0 0.0
2017-Jul-23 00:00N 40°53' W 073°56'0 0.0
2017-Jul-22 23:30N 40°53' W 073°56'0 0.0
2017-Jul-22 23:00N 40°53' W 073°56'0 0.1
2017-Jul-22 22:30N 40°52' W 073°56'0 0.1
2017-Jul-22 22:00N 40°52' W 073°56'0 0.4
2017-Jul-22 21:30N 40°52' W 073°56'0 0.0
2017-Jul-22 21:00N 40°52' W 073°56'0 0.0
2017-Jul-22 20:30N 40°52' W 073°56'0 0.0
2017-Jul-22 20:00N 40°52' W 073°56'0 0.0
2017-Jul-22 19:30N 40°52' W 073°56'0 0.0
2017-Jul-22 19:00N 40°52' W 073°56'0 0.0
2017-Jul-22 18:30N 40°52' W 073°56'0 0.0
2017-Jul-22 18:00N 40°52' W 073°56'0 0.0
2017-Jul-22 17:30N 40°52' W 073°56'0 0.0
2017-Jul-22 17:00N 40°52' W 073°56'0 0.0
2017-Jul-22 16:30N 40°52' W 073°56'0 0.1
2017-Jul-22 16:00N 40°52' W 073°56'0 0.2
2017-Jul-22 15:30N 40°52' W 073°56'0 0.3
2017-Jul-22 15:00N 40°52' W 073°56'0 0.1
2017-Jul-22 14:00N 40°53' W 073°56'0 0.0
2017-Jul-22 13:30N 40°53' W 073°56'0 0.1
2017-Jul-22 13:00N 40°52' W 073°56'0 0.0
2017-Jul-22 12:30N 40°52' W 073°56'0 0.0
2017-Jul-22 12:00N 40°53' W 073°56'0 0.1
2017-Jul-22 11:30N 40°53' W 073°56'0 0.0
2017-Jul-22 11:00N 40°53' W 073°56'0 0.2
2017-Jul-22 10:30N 40°52' W 073°56'0 0.3
2017-Jul-22 10:00N 40°52' W 073°56'0 0.1
2017-Jul-22 09:30N 40°52' W 073°56'0 0.0
2017-Jul-22 09:00N 40°52' W 073°56'0 0.0
2017-Jul-22 08:30N 40°52' W 073°56'0 0.0
2017-Jul-22 08:00N 40°52' W 073°56'0 0.0
2017-Jul-22 07:30N 40°52' W 073°56'0 0.0
2017-Jul-22 07:00N 40°52' W 073°56'0 0.0
2017-Jul-22 06:30N 40°52' W 073°56'0 0.0
2017-Jul-22 06:00N 40°52' W 073°56'0 0.0
2017-Jul-22 05:30N 40°52' W 073°56'0 0.0
2017-Jul-22 05:00N 40°52' W 073°56'0 0.1
2017-Jul-22 04:27N 40°52' W 073°57'0 0.0
2017-Jul-22 04:00N 40°52' W 073°57'0 0.0
2017-Jul-22 03:30N 40°52' W 073°56'0 0.3
2017-Jul-22 03:00N 40°52' W 073°56'0 0.1
2017-Jul-22 02:30N 40°52' W 073°56'0 0.0
2017-Jul-22 02:00N 40°53' W 073°56'0 0.0
2017-Jul-22 01:30N 40°52' W 073°56'0 0.0
2017-Jul-22 01:00N 40°52' W 073°56'0 0.0
2017-Jul-22 00:30N 40°52' W 073°56'0 0.0
2017-Jul-22 00:00N 40°52' W 073°56'0 0.0
2017-Jul-21 23:30N 40°52' W 073°56'3 5.9
2017-Jul-21 23:00N 40°50' W 073°58'613.0
2017-Jul-21 22:30N 40°44' W 074°01'510.0
2017-Jul-21 22:00N 40°39' W 074°03'0 0.1
2017-Jul-21 21:30N 40°39' W 074°03'0 0.0
2017-Jul-21 21:00N 40°39' W 074°03'0 0.0
2017-Jul-21 20:31N 40°39' W 074°03'0 0.0
2017-Jul-21 20:00N 40°39' W 074°03'0 0.1
2017-Jul-21 19:30N 40°39' W 074°03'0 0.1
2017-Jul-21 19:01N 40°39' W 074°03'0 0.0
2017-Jul-21 18:30N 40°39' W 074°03'0 0.1
2017-Jul-21 18:00N 40°39' W 074°03'0 0.0
2017-Jul-21 17:30N 40°39' W 074°03'0 0.0
2017-Jul-21 17:00N 40°39' W 074°03'0 0.0
2017-Jul-21 16:30N 40°39' W 074°03'0 0.0
2017-Jul-21 16:00N 40°39' W 074°03'0 0.0
2017-Jul-21 15:30N 40°39' W 074°03'0 0.0
2017-Jul-21 15:00N 40°39' W 074°03'0 0.0
2017-Jul-21 14:30N 40°39' W 074°03'0 0.0
2017-Jul-21 14:00N 40°39' W 074°03'0 0.1
2017-Jul-21 13:30N 40°39' W 074°03'0 0.0
2017-Jul-21 13:00N 40°39' W 074°03'0 0.1
2017-Jul-21 12:30N 40°39' W 074°03'0 0.1
2017-Jul-21 12:00N 40°39' W 074°03'0 0.0
2017-Jul-21 11:30N 40°39' W 074°03'0 0.0
2017-Jul-21 11:00N 40°39' W 074°03'0 0.0
2017-Jul-21 10:30N 40°39' W 074°03'0 0.0
2017-Jul-21 10:00N 40°39' W 074°03'0 0.0
2017-Jul-21 09:30N 40°39' W 074°03'0 0.0
2017-Jul-21 09:00N 40°39' W 074°03'0 0.0
2017-Jul-21 08:30N 40°39' W 074°03'0 0.0
2017-Jul-21 08:00N 40°39' W 074°03'0 0.1
2017-Jul-21 07:31N 40°39' W 074°03'0 0.1
2017-Jul-21 07:00N 40°39' W 074°03'0 0.1
2017-Jul-21 06:30N 40°39' W 074°03'0 0.0
2017-Jul-21 06:00N 40°39' W 074°03'0 0.0
2017-Jul-21 05:30N 40°39' W 074°03'0 0.0
2017-Jul-21 05:00N 40°39' W 074°03'0 0.0
2017-Jul-21 04:30N 40°39' W 074°03'0 0.0
2017-Jul-21 04:00N 40°39' W 074°03'0 0.0
2017-Jul-21 03:30N 40°39' W 074°03'0 0.0
2017-Jul-21 03:00N 40°39' W 074°03'0 0.0
2017-Jul-21 02:30N 40°39' W 074°03'0 0.1
2017-Jul-21 02:00N 40°39' W 074°03'0 0.0
2017-Jul-21 01:30N 40°39' W 074°03'0 0.1
2017-Jul-21 01:00N 40°39' W 074°03'0 0.1
2017-Jul-21 00:30N 40°39' W 074°03'0 0.0
2017-Jul-21 00:00N 40°39' W 074°03'0 0.3
2017-Jul-20 23:30N 40°39' W 074°03'0 0.0
2017-Jul-20 23:00N 40°39' W 074°03'0 0.0
2017-Jul-20 22:30N 40°39' W 074°03'0 0.0
2017-Jul-20 22:00N 40°39' W 074°03'0 0.0
2017-Jul-20 21:30N 40°39' W 074°03'0 0.0
2017-Jul-20 21:00N 40°39' W 074°03'0 0.0
2017-Jul-20 20:30N 40°39' W 074°03'0 0.1
2017-Jul-20 20:00N 40°39' W 074°03'0 0.0
2017-Jul-20 19:30N 40°39' W 074°03'0 0.1
2017-Jul-20 19:00N 40°39' W 074°03'0 0.1
2017-Jul-20 18:30N 40°39' W 074°03'0 0.1
2017-Jul-20 18:00N 40°39' W 074°03'1 2.6
2017-Jul-20 17:30N 40°38' W 074°03'3 6.4
2017-Jul-20 17:00N 40°35' W 074°02'2 3.7
2017-Jul-20 16:30N 40°33' W 074°01'4 7.3
2017-Jul-20 16:00N 40°30' W 073°58'4 7.1
2017-Jul-20 15:30N 40°29' W 073°54'4 7.6
2017-Jul-20 15:00N 40°25' W 073°53'20 9.0
2017-Jul-20 12:43N 40°05' W 073°55'2 9.1
2017-Jul-20 12:30N 40°03' W 073°56'4 9.0
2017-Jul-20 12:01N 39°58' W 073°56'5 9.0
2017-Jul-20 11:30N 39°54' W 073°57'5 8.9
2017-Jul-20 10:58N 39°49' W 073°58'4 8.8
2017-Jul-20 10:30N 39°45' W 073°59'4 8.8
2017-Jul-20 10:00N 39°41' W 074°00'5 8.8
2017-Jul-20 09:29N 39°36' W 074°03'4 8.9
2017-Jul-20 09:00N 39°33' W 074°05'5 8.9
2017-Jul-20 08:30N 39°28' W 074°07'4 8.9
2017-Jul-20 08:01N 39°24' W 074°09'5 9.0
2017-Jul-20 07:30N 39°21' W 074°13'5 9.1
2017-Jul-20 07:00N 39°17' W 074°17'4 8.9
2017-Jul-20 06:30N 39°14' W 074°21'4 8.9
2017-Jul-20 06:01N 39°12' W 074°25'5 9.0
2017-Jul-20 05:30N 39°09' W 074°30'4 8.8
2017-Jul-20 05:00N 39°06' W 074°34'4 9.0
2017-Jul-20 04:31N 39°03' W 074°38'5 9.3
2017-Jul-20 04:01N 38°59' W 074°42'5 9.5
2017-Jul-20 03:31N 38°55' W 074°45'5 9.5
2017-Jul-20 03:00N 38°51' W 074°49'5 9.9
2017-Jul-20 02:30N 38°49' W 074°55'510.2
2017-Jul-20 02:00N 38°48' W 075°01'910.9
2017-Jul-20 01:12N 38°56' W 075°06'210.7
2017-Jul-20 01:00N 38°58' W 075°07'810.3
2017-Jul-20 00:13N 39°05' W 075°11'2 9.5
2017-Jul-20 00:00N 39°07' W 075°13'4 9.0
2017-Jul-19 23:30N 39°11' W 075°16'4 7.9
2017-Jul-19 23:00N 39°14' W 075°18'4 7.2
2017-Jul-19 22:30N 39°17' W 075°21'3 6.7
2017-Jul-19 22:00N 39°19' W 075°24'3 6.7
2017-Jul-19 21:30N 39°22' W 075°27'4 7.2
2017-Jul-19 21:00N 39°24' W 075°30'4 7.7
2017-Jul-19 20:30N 39°27' W 075°34'4 8.3
2017-Jul-19 20:00N 39°32' W 075°33'4 7.6
2017-Jul-19 19:30N 39°35' W 075°33'4 7.6
2017-Jul-19 19:00N 39°39' W 075°33'510.8
2017-Jul-19 18:30N 39°44' W 075°30'510.5
2017-Jul-19 18:00N 39°48' W 075°26'510.8
2017-Jul-19 17:30N 39°51' W 075°20'510.3
2017-Jul-19 17:00N 39°52' W 075°13'2 3.4
2017-Jul-19 16:28N 39°54' W 075°12'0 0.3
2017-Jul-19 15:59N 39°54' W 075°12'0 0.0
2017-Jul-19 15:30N 39°54' W 075°12'0 0.2
2017-Jul-19 14:59N 39°54' W 075°12'0 0.0
2017-Jul-19 14:29N 39°54' W 075°12'0 0.1
2017-Jul-19 13:59N 39°54' W 075°12'0 0.0
2017-Jul-19 13:30N 39°54' W 075°12'0 0.2
2017-Jul-19 13:00N 39°54' W 075°12'0 0.0
2017-Jul-19 12:28N 39°54' W 075°12'0 0.0
2017-Jul-19 11:58N 39°54' W 075°12'0 0.0
2017-Jul-19 11:29N 39°54' W 075°12'0 0.0
2017-Jul-19 10:59N 39°54' W 075°12'0 0.0
2017-Jul-19 10:29N 39°54' W 075°12'0 0.0
2017-Jul-19 10:00N 39°54' W 075°12'0 0.0
2017-Jul-19 09:30N 39°54' W 075°12'0 0.0
2017-Jul-19 08:57N 39°54' W 075°12'0 0.0
2017-Jul-19 08:31N 39°54' W 075°12'0 0.0
2017-Jul-19 07:58N 39°54' W 075°12'0 0.0
2017-Jul-19 07:28N 39°54' W 075°12'0 0.0
2017-Jul-19 06:59N 39°54' W 075°12'0 0.0
2017-Jul-19 06:29N 39°54' W 075°12'0 0.0
2017-Jul-19 05:59N 39°54' W 075°12'0 0.0
2017-Jul-19 05:17N 39°54' W 075°12'0 0.0
2017-Jul-19 05:00N 39°54' W 075°12'0 0.0
2017-Jul-19 04:30N 39°54' W 075°12'0 0.0
2017-Jul-19 04:00N 39°54' W 075°12'0 0.0
2017-Jul-19 03:28N 39°54' W 075°12'0 0.0
2017-Jul-19 02:58N 39°54' W 075°12'0 0.0
2017-Jul-19 02:29N 39°54' W 075°12'0 0.0
2017-Jul-19 01:56N 39°54' W 075°12'0 0.0
2017-Jul-19 01:29N 39°54' W 075°12'0 0.0
2017-Jul-19 01:00N 39°54' W 075°12'0 0.0
2017-Jul-19 00:27N 39°54' W 075°12'0 0.0
2017-Jul-19 00:00N 39°54' W 075°12'0 0.0
2017-Jul-18 23:28N 39°54' W 075°12'0 0.0
2017-Jul-18 22:58N 39°54' W 075°12'0 0.0
2017-Jul-18 22:28N 39°54' W 075°12'0 0.0
2017-Jul-18 21:58N 39°54' W 075°12'0 0.0
2017-Jul-18 21:29N 39°54' W 075°12'0 0.0
2017-Jul-18 21:01N 39°54' W 075°12'1 1.4
2017-Jul-18 20:31N 39°53' W 075°12'1 1.5
2017-Jul-18 20:01N 39°53' W 075°11'2 3.9
2017-Jul-18 19:28N 39°54' W 075°08'0 0.0
2017-Jul-18 19:01N 39°54' W 075°08'1 2.2
2017-Jul-18 18:30N 39°53' W 075°09'0 0.9
2017-Jul-18 18:00N 39°53' W 075°10'2 3.2
2017-Jul-18 17:31N 39°54' W 075°12'1 1.2
2017-Jul-18 16:59N 39°54' W 075°12'0 0.0
2017-Jul-18 16:29N 39°54' W 075°12'0 0.0
2017-Jul-18 15:59N 39°54' W 075°12'0 0.0
2017-Jul-18 15:30N 39°54' W 075°12'0 0.0
2017-Jul-18 15:00N 39°54' W 075°12'0 0.0
2017-Jul-18 14:00N 39°54' W 075°12'0 0.0
2017-Jul-18 13:28N 39°54' W 075°12'0 0.0
2017-Jul-18 12:55N 39°54' W 075°12'0 0.0
2017-Jul-18 12:29N 39°54' W 075°12'0 0.0
2017-Jul-18 12:01N 39°54' W 075°12'0 0.1
2017-Jul-18 11:29N 39°54' W 075°12'0 0.1
2017-Jul-18 10:59N 39°54' W 075°12'0 0.2
2017-Jul-18 10:28N 39°54' W 075°12'0 0.0
2017-Jul-18 09:58N 39°54' W 075°12'0 0.0
2017-Jul-18 09:29N 39°54' W 075°12'0 0.0
2017-Jul-18 08:59N 39°54' W 075°12'0 0.0
2017-Jul-18 08:29N 39°54' W 075°12'0 0.0
2017-Jul-18 07:59N 39°54' W 075°12'0 0.0
2017-Jul-18 07:30N 39°54' W 075°12'0 0.0
2017-Jul-18 07:00N 39°54' W 075°12'0 0.0
2017-Jul-18 06:30N 39°54' W 075°12'0 0.0
2017-Jul-18 05:58N 39°54' W 075°12'0 0.0
2017-Jul-18 05:28N 39°54' W 075°12'0 0.0
2017-Jul-18 04:59N 39°54' W 075°12'0 0.0
2017-Jul-18 04:29N 39°54' W 075°12'0 0.0
2017-Jul-18 03:59N 39°54' W 075°12'0 0.0
2017-Jul-18 03:30N 39°54' W 075°12'0 0.0
2017-Jul-18 03:00N 39°54' W 075°12'0 0.0
2017-Jul-18 02:30N 39°54' W 075°12'0 0.0
2017-Jul-18 02:00N 39°54' W 075°12'0 0.0
2017-Jul-18 01:28N 39°54' W 075°12'0 0.0
2017-Jul-18 00:58N 39°54' W 075°12'0 0.0
2017-Jul-18 00:29N 39°54' W 075°12'0 0.0
2017-Jul-17 23:59N 39°54' W 075°12'0 0.0
2017-Jul-17 23:29N 39°54' W 075°12'0 0.0
2017-Jul-17 23:00N 39°54' W 075°12'0 0.0
2017-Jul-17 22:30N 39°54' W 075°12'0 0.0
2017-Jul-17 22:00N 39°54' W 075°12'0 0.0
2017-Jul-17 21:30N 39°54' W 075°12'0 0.0
2017-Jul-17 20:58N 39°54' W 075°12'0 0.0
2017-Jul-17 20:28N 39°54' W 075°12'0 0.0
2017-Jul-17 20:00N 39°54' W 075°12'0 0.0
2017-Jul-17 19:30N 39°54' W 075°12'0 0.0
2017-Jul-17 19:00N 39°54' W 075°12'2 3.7
2017-Jul-17 18:31N 39°52' W 075°13'0 0.1
2017-Jul-17 18:00N 39°52' W 075°13'0 0.8
2017-Jul-17 17:31N 39°52' W 075°13'2 3.0
2017-Jul-17 16:59N 39°54' W 075°12'0 0.0
2017-Jul-17 16:26N 39°54' W 075°12'0 0.0
2017-Jul-17 15:58N 39°54' W 075°12'0 0.0
2017-Jul-17 15:29N 39°54' W 075°12'0 0.0
2017-Jul-17 14:59N 39°54' W 075°12'0 0.0
2017-Jul-17 14:29N 39°54' W 075°12'0 0.0
2017-Jul-17 14:00N 39°54' W 075°12'0 0.0
2017-Jul-17 13:30N 39°54' W 075°12'0 0.0
2017-Jul-17 13:00N 39°54' W 075°12'0 0.0
2017-Jul-17 12:30N 39°54' W 075°12'0 0.0
2017-Jul-17 11:58N 39°54' W 075°12'0 0.0
2017-Jul-17 11:28N 39°54' W 075°12'0 0.0
2017-Jul-17 10:59N 39°54' W 075°12'0 0.0
2017-Jul-17 10:29N 39°54' W 075°12'0 0.0
2017-Jul-17 09:59N 39°54' W 075°12'0 0.0
2017-Jul-17 09:30N 39°54' W 075°12'0 0.0
2017-Jul-17 09:00N 39°54' W 075°12'0 0.0
2017-Jul-17 08:30N 39°54' W 075°12'0 0.0
2017-Jul-17 08:00N 39°54' W 075°12'0 0.0
2017-Jul-17 07:28N 39°54' W 075°12'0 0.0
2017-Jul-17 06:58N 39°54' W 075°12'0 0.0
2017-Jul-17 06:29N 39°54' W 075°12'0 0.0
2017-Jul-17 05:59N 39°54' W 075°12'0 0.0
2017-Jul-17 05:29N 39°54' W 075°12'0 0.0
2017-Jul-17 05:00N 39°54' W 075°12'0 0.0
2017-Jul-17 04:30N 39°54' W 075°12'0 0.0
2017-Jul-17 04:00N 39°54' W 075°12'0 0.0
2017-Jul-17 03:30N 39°54' W 075°12'0 0.0
2017-Jul-17 02:58N 39°54' W 075°12'0 0.0
2017-Jul-17 02:28N 39°54' W 075°12'0 0.0
2017-Jul-17 01:59N 39°54' W 075°12'0 0.0
2017-Jul-17 01:29N 39°54' W 075°12'0 0.0
2017-Jul-17 00:59N 39°54' W 075°12'0 0.0
2017-Jul-17 00:27N 39°54' W 075°12'0 0.0
2017-Jul-17 00:00N 39°54' W 075°12'0 0.0
2017-Jul-16 23:30N 39°54' W 075°12'0 0.0
2017-Jul-16 22:58N 39°54' W 075°12'0 0.0
2017-Jul-16 22:28N 39°54' W 075°12'0 0.0
2017-Jul-16 21:58N 39°54' W 075°12'0 0.0
2017-Jul-16 21:29N 39°54' W 075°12'0 0.0
2017-Jul-16 20:59N 39°54' W 075°12'0 0.0
2017-Jul-16 20:29N 39°54' W 075°12'0 0.0
2017-Jul-16 20:00N 39°54' W 075°12'0 0.0
2017-Jul-16 19:30N 39°54' W 075°12'0 0.0
2017-Jul-16 19:00N 39°54' W 075°12'0 0.2
2017-Jul-16 18:30N 39°54' W 075°12'1 2.2
2017-Jul-16 18:00N 39°55' W 075°13'1 2.2
2017-Jul-16 17:30N 39°54' W 075°12'0 0.0
2017-Jul-16 17:00N 39°54' W 075°12'0 0.0
2017-Jul-16 16:30N 39°54' W 075°12'0 0.0
2017-Jul-16 16:00N 39°54' W 075°12'0 0.0
2017-Jul-16 15:30N 39°54' W 075°12'0 0.0
2017-Jul-16 15:00N 39°54' W 075°12'0 0.0
2017-Jul-16 14:29N 39°54' W 075°12'0 0.0
2017-Jul-16 14:01N 39°54' W 075°12'0 0.0
2017-Jul-16 13:30N 39°54' W 075°12'0 0.0
2017-Jul-16 13:00N 39°54' W 075°12'0 0.0
2017-Jul-16 12:30N 39°54' W 075°12'0 0.0
2017-Jul-16 12:00N 39°54' W 075°12'0 0.0
2017-Jul-16 11:31N 39°54' W 075°12'0 0.0
2017-Jul-16 11:00N 39°54' W 075°12'0 0.0
2017-Jul-16 10:31N 39°54' W 075°12'0 0.0
2017-Jul-16 10:00N 39°54' W 075°12'0 0.0
2017-Jul-16 09:30N 39°54' W 075°12'0 0.0
2017-Jul-16 09:00N 39°54' W 075°12'0 0.0
2017-Jul-16 08:30N 39°54' W 075°12'0 0.0
2017-Jul-16 08:00N 39°54' W 075°12'0 0.0
2017-Jul-16 07:30N 39°54' W 075°12'0 0.0
2017-Jul-16 07:01N 39°54' W 075°12'0 0.0
2017-Jul-16 06:31N 39°54' W 075°12'0 0.0
2017-Jul-16 06:00N 39°54' W 075°12'0 0.0
2017-Jul-16 05:30N 39°54' W 075°12'0 0.0
2017-Jul-16 05:01N 39°54' W 075°12'0 0.0
2017-Jul-16 04:30N 39°54' W 075°12'0 0.0
2017-Jul-16 04:00N 39°54' W 075°12'1 1.9
2017-Jul-16 03:31N 39°54' W 075°13'0 0.3
2017-Jul-16 03:00N 39°55' W 075°13'1 2.1
2017-Jul-16 02:31N 39°54' W 075°12'2 4.5
2017-Jul-16 02:01N 39°52' W 075°14'3 6.6
2017-Jul-16 01:30N 39°51' W 075°18'3 6.3
2017-Jul-16 01:01N 39°50' W 075°22'3 6.8
2017-Jul-16 00:30N 39°48' W 075°25'4 7.3
2017-Jul-16 00:00N 39°46' W 075°29'4 7.6
2017-Jul-15 23:30N 39°42' W 075°31'4 7.7
2017-Jul-15 23:01N 39°39' W 075°33'3 6.9
2017-Jul-15 22:31N 39°35' W 075°34'4 8.1
2017-Jul-15 22:00N 39°31' W 075°33'4 8.2
2017-Jul-15 21:30N 39°27' W 075°33'4 8.8
2017-Jul-15 21:00N 39°24' W 075°30'5 9.3
2017-Jul-15 20:30N 39°20' W 075°26'  
Track history (hours):
 
Tides and Currents Weather Stations Pressure Air Temp Water Temp Dewpoint Dewpoint Depression Visibility Wind Speed Wind Dir Waves Ship Positions

Susquehanna

Owner: Vane Line Bunkering, Inc., Philadelphia, PA. More information available from US FCC via Universal Licensing System and Coast Guard Vessel Documentation Center.

Last reported at 2017-Jul-25 20:30 UTC. Time now 2017-Jul-25 20:46 UTC.
Position N 40°40' W 074°09'.

Length 28 m; draft 4.2 m.

Type: Tug. MMSI: 367318750.

Date/timePositionNaut miles runAvg speedWind from/ knotsBaromVisibWave heightAir tempDewpointWater temp
2017-Jul-25 20:30N 40°40' W 074°09'0 0.0
2017-Jul-25 20:00N 40°40' W 074°09'0 0.0
2017-Jul-25 19:30N 40°40' W 074°09'0 0.0
2017-Jul-25 19:00N 40°40' W 074°09'0 0.0
2017-Jul-25 18:30N 40°40' W 074°09'0 0.0
2017-Jul-25 18:00N 40°40' W 074°09'0 0.0
2017-Jul-25 17:30N 40°40' W 074°09'0 0.0
2017-Jul-25 17:00N 40°40' W 074°09'0 0.0
2017-Jul-25 16:30N 40°40' W 074°09'0 0.0
2017-Jul-25 16:00N 40°40' W 074°09'0 0.0
2017-Jul-25 15:30N 40°40' W 074°09'0 0.0
2017-Jul-25 15:00N 40°40' W 074°09'0 0.1
2017-Jul-25 14:00N 40°40' W 074°09'2 3.6
2017-Jul-25 13:30N 40°39' W 074°07'0 0.2
2017-Jul-25 13:00N 40°39' W 074°07'0 0.0
2017-Jul-25 12:30N 40°39' W 074°07'0 0.0
2017-Jul-25 12:00N 40°39' W 074°07'0 0.0
2017-Jul-25 11:30N 40°39' W 074°07'0 0.0
2017-Jul-25 11:00N 40°39' W 074°07'0 0.0
2017-Jul-25 10:30N 40°39' W 074°07'0 0.0
2017-Jul-25 10:00N 40°39' W 074°07'2 3.4
2017-Jul-25 09:30N 40°40' W 074°05'0 0.0
2017-Jul-25 09:00N 40°40' W 074°05'0 0.0
2017-Jul-25 08:30N 40°40' W 074°05'0 0.0
2017-Jul-25 08:00N 40°40' W 074°05'0 0.0
2017-Jul-25 07:30N 40°40' W 074°05'0 0.0
2017-Jul-25 07:00N 40°40' W 074°05'0 0.0
2017-Jul-25 06:30N 40°40' W 074°05'0 0.0
2017-Jul-25 06:00N 40°40' W 074°05'0 0.0
2017-Jul-25 05:30N 40°40' W 074°05'0 0.0
2017-Jul-25 05:00N 40°40' W 074°05'0 0.0
2017-Jul-25 04:30N 40°40' W 074°05'0 0.0
2017-Jul-25 04:00N 40°40' W 074°05'0 0.0
2017-Jul-25 03:30N 40°40' W 074°05'0 0.0
2017-Jul-25 03:00N 40°40' W 074°05'0 0.0
2017-Jul-25 02:30N 40°40' W 074°05'0 0.0
2017-Jul-25 02:00N 40°40' W 074°05'0 0.0
2017-Jul-25 01:30N 40°40' W 074°05'0 0.0
2017-Jul-25 01:00N 40°40' W 074°05'0 0.0
2017-Jul-25 00:30N 40°40' W 074°05'0 0.0
2017-Jul-25 00:00N 40°40' W 074°05'0 0.0
2017-Jul-24 23:30N 40°40' W 074°05'0 0.0
2017-Jul-24 23:01N 40°40' W 074°05'0 0.0
2017-Jul-24 22:30N 40°40' W 074°05'0 0.0
2017-Jul-24 22:01N 40°40' W 074°05'0 0.0
2017-Jul-24 21:30N 40°40' W 074°05'2 3.4
2017-Jul-24 21:00N 40°39' W 074°06'0 0.1
2017-Jul-24 20:31N 40°39' W 074°07'0 0.0
2017-Jul-24 20:00N 40°39' W 074°07'0 0.0
2017-Jul-24 19:30N 40°39' W 074°07'1 2.8
2017-Jul-24 19:00N 40°39' W 074°05'4 8.3
2017-Jul-24 18:30N 40°43' W 074°02'611.7
2017-Jul-24 18:00N 40°48' W 073°59'5 9.3
2017-Jul-24 17:30N 40°52' W 073°56'0 0.2
2017-Jul-24 17:00N 40°52' W 073°56'0 0.1
2017-Jul-24 16:30N 40°52' W 073°56'0 0.1
2017-Jul-24 16:00N 40°52' W 073°56'0 0.1
2017-Jul-24 13:00N 40°52' W 073°57'0 0.0
2017-Jul-24 12:30N 40°52' W 073°57'0 0.0
2017-Jul-24 11:59N 40°52' W 073°57'0 0.0
2017-Jul-24 11:30N 40°52' W 073°57'0 0.2
2017-Jul-24 11:00N 40°52' W 073°57'0 0.0
2017-Jul-24 10:30N 40°52' W 073°57'0 0.0
2017-Jul-24 10:00N 40°52' W 073°57'0 0.0
2017-Jul-24 09:30N 40°52' W 073°56'0 0.0
2017-Jul-24 09:00N 40°52' W 073°57'0 0.0
2017-Jul-24 08:30N 40°52' W 073°56'0 0.0
2017-Jul-24 08:00N 40°52' W 073°57'0 0.0
2017-Jul-24 07:30N 40°52' W 073°56'0 0.0
2017-Jul-24 07:00N 40°52' W 073°57'0 0.0
2017-Jul-24 06:30N 40°52' W 073°57'0 0.1
2017-Jul-24 06:00N 40°52' W 073°57'0 0.1
2017-Jul-24 05:30N 40°52' W 073°57'0 0.0
2017-Jul-24 05:00N 40°52' W 073°57'0 0.3
2017-Jul-24 04:30N 40°52' W 073°56'0 0.1
2017-Jul-24 04:00N 40°53' W 073°56'0 0.0
2017-Jul-24 03:30N 40°53' W 073°56'0 0.0
2017-Jul-24 03:00N 40°53' W 073°56'0 0.0
2017-Jul-24 02:30N 40°53' W 073°56'0 0.0
2017-Jul-24 02:00N 40°53' W 073°56'0 0.0
2017-Jul-24 01:30N 40°53' W 073°56'0 0.0
2017-Jul-24 01:00N 40°53' W 073°56'0 0.0
2017-Jul-24 00:30N 40°53' W 073°56'0 0.0
2017-Jul-24 00:00N 40°53' W 073°56'0 0.1
2017-Jul-23 23:30N 40°52' W 073°56'0 0.0
2017-Jul-23 23:00N 40°52' W 073°56'0 0.1
2017-Jul-23 22:30N 40°52' W 073°57'0 0.2
2017-Jul-23 22:00N 40°52' W 073°57'0 0.1
2017-Jul-23 21:30N 40°52' W 073°57'0 0.0
2017-Jul-23 21:00N 40°52' W 073°56'0 0.0
2017-Jul-23 20:30N 40°52' W 073°56'0 0.0
2017-Jul-23 20:00N 40°52' W 073°56'0 0.0
2017-Jul-23 19:30N 40°52' W 073°57'0 0.0
2017-Jul-23 19:00N 40°52' W 073°56'0 0.0
2017-Jul-23 18:20N 40°52' W 073°56'0 0.1
2017-Jul-23 17:49N 40°52' W 073°56'0 0.1
2017-Jul-23 17:07N 40°52' W 073°57'0 0.1
2017-Jul-23 16:54N 40°52' W 073°56'0 0.1
2017-Jul-23 16:25N 40°52' W 073°57'0 0.2
2017-Jul-23 16:00N 40°52' W 073°56'0 0.1
2017-Jul-23 15:30N 40°53' W 073°56'0 0.1
2017-Jul-23 15:00N 40°53' W 073°56'0 0.1
2017-Jul-23 14:30N 40°52' W 073°56'0 0.0
2017-Jul-23 14:00N 40°52' W 073°56'0 0.0
2017-Jul-23 13:30N 40°52' W 073°56'0 0.1
2017-Jul-23 13:00N 40°52' W 073°56'0 0.1
2017-Jul-23 12:29N 40°52' W 073°56'0 0.0
2017-Jul-23 12:00N 40°52' W 073°56'0 0.0
2017-Jul-23 11:30N 40°52' W 073°56'0 0.1
2017-Jul-23 11:00N 40°52' W 073°57'0 0.2
2017-Jul-23 10:30N 40°52' W 073°56'0 0.0
2017-Jul-23 10:00N 40°52' W 073°56'0 0.0
2017-Jul-23 09:30N 40°52' W 073°56'0 0.0
2017-Jul-23 09:00N 40°52' W 073°56'0 0.0
2017-Jul-23 08:30N 40°52' W 073°56'0 0.0
2017-Jul-23 08:00N 40°52' W 073°56'0 0.0
2017-Jul-23 07:30N 40°52' W 073°56'0 0.0
2017-Jul-23 07:00N 40°52' W 073°56'0 0.0
2017-Jul-23 06:30N 40°52' W 073°56'0 0.0
2017-Jul-23 06:00N 40°52' W 073°56'0 0.0
2017-Jul-23 05:30N 40°52' W 073°56'0 0.1
2017-Jul-23 04:59N 40°52' W 073°57'0 0.0
2017-Jul-23 04:29N 40°52' W 073°57'0 0.4
2017-Jul-23 04:01N 40°52' W 073°56'0 0.1
2017-Jul-23 03:30N 40°53' W 073°56'0 0.0
2017-Jul-23 03:00N 40°53' W 073°56'0 0.0
2017-Jul-23 02:30N 40°53' W 073°56'0 0.0
2017-Jul-23 02:00N 40°53' W 073°56'0 0.0
2017-Jul-23 01:30N 40°53' W 073°56'0 0.0
2017-Jul-23 01:00N 40°53' W 073°56'0 0.0
2017-Jul-23 00:30N 40°53' W 073°56'0 0.0
2017-Jul-23 00:00N 40°53' W 073°56'0 0.0
2017-Jul-22 23:30N 40°53' W 073°56'0 0.0
2017-Jul-22 23:00N 40°53' W 073°56'0 0.1
2017-Jul-22 22:30N 40°52' W 073°56'0 0.1
2017-Jul-22 22:00N 40°52' W 073°56'0 0.4
2017-Jul-22 21:30N 40°52' W 073°56'0 0.0
2017-Jul-22 21:00N 40°52' W 073°56'0 0.0
2017-Jul-22 20:30N 40°52' W 073°56'0 0.0
2017-Jul-22 20:00N 40°52' W 073°56'0 0.0
2017-Jul-22 19:30N 40°52' W 073°56'0 0.0
2017-Jul-22 19:00N 40°52' W 073°56'0 0.0
2017-Jul-22 18:30N 40°52' W 073°56'0 0.0
2017-Jul-22 18:00N 40°52' W 073°56'0 0.0
2017-Jul-22 17:30N 40°52' W 073°56'0 0.0
2017-Jul-22 17:00N 40°52' W 073°56'0 0.0
2017-Jul-22 16:30N 40°52' W 073°56'0 0.1
2017-Jul-22 16:00N 40°52' W 073°56'0 0.2
2017-Jul-22 15:30N 40°52' W 073°56'0 0.3
2017-Jul-22 15:00N 40°52' W 073°56'0 0.1
2017-Jul-22 14:00N 40°53' W 073°56'0 0.0
2017-Jul-22 13:30N 40°53' W 073°56'0 0.1
2017-Jul-22 13:00N 40°52' W 073°56'0 0.0
2017-Jul-22 12:30N 40°52' W 073°56'0 0.0
2017-Jul-22 12:00N 40°53' W 073°56'0 0.1
2017-Jul-22 11:30N 40°53' W 073°56'0 0.0
2017-Jul-22 11:00N 40°53' W 073°56'0 0.2
2017-Jul-22 10:30N 40°52' W 073°56'0 0.3
2017-Jul-22 10:00N 40°52' W 073°56'0 0.1
2017-Jul-22 09:30N 40°52' W 073°56'0 0.0
2017-Jul-22 09:00N 40°52' W 073°56'0 0.0
2017-Jul-22 08:30N 40°52' W 073°56'0 0.0
2017-Jul-22 08:00N 40°52' W 073°56'0 0.0
2017-Jul-22 07:30N 40°52' W 073°56'0 0.0
2017-Jul-22 07:00N 40°52' W 073°56'0 0.0
2017-Jul-22 06:30N 40°52' W 073°56'0 0.0
2017-Jul-22 06:00N 40°52' W 073°56'0 0.0
2017-Jul-22 05:30N 40°52' W 073°56'0 0.0
2017-Jul-22 05:00N 40°52' W 073°56'0 0.1
2017-Jul-22 04:27N 40°52' W 073°57'0 0.0
2017-Jul-22 04:00N 40°52' W 073°57'0 0.0
2017-Jul-22 03:30N 40°52' W 073°56'0 0.3
2017-Jul-22 03:00N 40°52' W 073°56'0 0.1
2017-Jul-22 02:30N 40°52' W 073°56'0 0.0
2017-Jul-22 02:00N 40°53' W 073°56'0 0.0
2017-Jul-22 01:30N 40°52' W 073°56'0 0.0
2017-Jul-22 01:00N 40°52' W 073°56'0 0.0
2017-Jul-22 00:30N 40°52' W 073°56'0 0.0
2017-Jul-22 00:00N 40°52' W 073°56'0 0.0
2017-Jul-21 23:30N 40°52' W 073°56'3 5.9
2017-Jul-21 23:00N 40°50' W 073°58'613.0
2017-Jul-21 22:30N 40°44' W 074°01'510.0
2017-Jul-21 22:00N 40°39' W 074°03'0 0.1
2017-Jul-21 21:30N 40°39' W 074°03'0 0.0
2017-Jul-21 21:00N 40°39' W 074°03'0 0.0
2017-Jul-21 20:31N 40°39' W 074°03'0 0.0
2017-Jul-21 20:00N 40°39' W 074°03'0 0.1
2017-Jul-21 19:30N 40°39' W 074°03'0 0.1
2017-Jul-21 19:01N 40°39' W 074°03'0 0.0
2017-Jul-21 18:30N 40°39' W 074°03'0 0.1
2017-Jul-21 18:00N 40°39' W 074°03'0 0.0
2017-Jul-21 17:30N 40°39' W 074°03'0 0.0
2017-Jul-21 17:00N 40°39' W 074°03'0 0.0
2017-Jul-21 16:30N 40°39' W 074°03'0 0.0
2017-Jul-21 16:00N 40°39' W 074°03'0 0.0
2017-Jul-21 15:30N 40°39' W 074°03'0 0.0
2017-Jul-21 15:00N 40°39' W 074°03'0 0.0
2017-Jul-21 14:30N 40°39' W 074°03'0 0.0
2017-Jul-21 14:00N 40°39' W 074°03'0 0.1
2017-Jul-21 13:30N 40°39' W 074°03'0 0.0
2017-Jul-21 13:00N 40°39' W 074°03'0 0.1
2017-Jul-21 12:30N 40°39' W 074°03'0 0.1
2017-Jul-21 12:00N 40°39' W 074°03'0 0.0
2017-Jul-21 11:30N 40°39' W 074°03'0 0.0
2017-Jul-21 11:00N 40°39' W 074°03'0 0.0
2017-Jul-21 10:30N 40°39' W 074°03'0 0.0
2017-Jul-21 10:00N 40°39' W 074°03'0 0.0
2017-Jul-21 09:30N 40°39' W 074°03'0 0.0
2017-Jul-21 09:00N 40°39' W 074°03'0 0.0
2017-Jul-21 08:30N 40°39' W 074°03'0 0.0
2017-Jul-21 08:00N 40°39' W 074°03'0 0.1
2017-Jul-21 07:31N 40°39' W 074°03'0 0.1
2017-Jul-21 07:00N 40°39' W 074°03'0 0.1
2017-Jul-21 06:30N 40°39' W 074°03'0 0.0
2017-Jul-21 06:00N 40°39' W 074°03'0 0.0
2017-Jul-21 05:30N 40°39' W 074°03'0 0.0
2017-Jul-21 05:00N 40°39' W 074°03'0 0.0
2017-Jul-21 04:30N 40°39' W 074°03'0 0.0
2017-Jul-21 04:00N 40°39' W 074°03'0 0.0
2017-Jul-21 03:30N 40°39' W 074°03'0 0.0
2017-Jul-21 03:00N 40°39' W 074°03'0 0.0
2017-Jul-21 02:30N 40°39' W 074°03'0 0.1
2017-Jul-21 02:00N 40°39' W 074°03'0 0.0
2017-Jul-21 01:30N 40°39' W 074°03'0 0.1
2017-Jul-21 01:00N 40°39' W 074°03'0 0.1
2017-Jul-21 00:30N 40°39' W 074°03'0 0.0
2017-Jul-21 00:00N 40°39' W 074°03'0 0.3
2017-Jul-20 23:30N 40°39' W 074°03'0 0.0
2017-Jul-20 23:00N 40°39' W 074°03'0 0.0
2017-Jul-20 22:30N 40°39' W 074°03'0 0.0
2017-Jul-20 22:00N 40°39' W 074°03'0 0.0
2017-Jul-20 21:30N 40°39' W 074°03'0 0.0
2017-Jul-20 21:00N 40°39' W 074°03'0 0.0
2017-Jul-20 20:30N 40°39' W 074°03'0 0.1
2017-Jul-20 20:00N 40°39' W 074°03'0 0.0
2017-Jul-20 19:30N 40°39' W 074°03'0 0.1
2017-Jul-20 19:00N 40°39' W 074°03'0 0.1
2017-Jul-20 18:30N 40°39' W 074°03'0 0.1
2017-Jul-20 18:00N 40°39' W 074°03'1 2.6
2017-Jul-20 17:30N 40°38' W 074°03'3 6.4
2017-Jul-20 17:00N 40°35' W 074°02'2 3.7
2017-Jul-20 16:30N 40°33' W 074°01'4 7.3
2017-Jul-20 16:00N 40°30' W 073°58'4 7.1
2017-Jul-20 15:30N 40°29' W 073°54'4 7.6
2017-Jul-20 15:00N 40°25' W 073°53'20 9.0
2017-Jul-20 12:43N 40°05' W 073°55'2 9.1
2017-Jul-20 12:30N 40°03' W 073°56'4 9.0
2017-Jul-20 12:01N 39°58' W 073°56'5 9.0
2017-Jul-20 11:30N 39°54' W 073°57'5 8.9
2017-Jul-20 10:58N 39°49' W 073°58'4 8.8
2017-Jul-20 10:30N 39°45' W 073°59'4 8.8
2017-Jul-20 10:00N 39°41' W 074°00'5 8.8
2017-Jul-20 09:29N 39°36' W 074°03'4 8.9
2017-Jul-20 09:00N 39°33' W 074°05'5 8.9
2017-Jul-20 08:30N 39°28' W 074°07'4 8.9
2017-Jul-20 08:01N 39°24' W 074°09'5 9.0
2017-Jul-20 07:30N 39°21' W 074°13'5 9.1
2017-Jul-20 07:00N 39°17' W 074°17'4 8.9
2017-Jul-20 06:30N 39°14' W 074°21'4 8.9
2017-Jul-20 06:01N 39°12' W 074°25'5 9.0
2017-Jul-20 05:30N 39°09' W 074°30'4 8.8
2017-Jul-20 05:00N 39°06' W 074°34'4 9.0
2017-Jul-20 04:31N 39°03' W 074°38'5 9.3
2017-Jul-20 04:01N 38°59' W 074°42'5 9.5
2017-Jul-20 03:31N 38°55' W 074°45'5 9.5
2017-Jul-20 03:00N 38°51' W 074°49'5 9.9
2017-Jul-20 02:30N 38°49' W 074°55'510.2
2017-Jul-20 02:00N 38°48' W 075°01'910.9
2017-Jul-20 01:12N 38°56' W 075°06'210.7
2017-Jul-20 01:00N 38°58' W 075°07'810.3
2017-Jul-20 00:13N 39°05' W 075°11'2 9.5
2017-Jul-20 00:00N 39°07' W 075°13'4 9.0
2017-Jul-19 23:30N 39°11' W 075°16'4 7.9
2017-Jul-19 23:00N 39°14' W 075°18'4 7.2
2017-Jul-19 22:30N 39°17' W 075°21'3 6.7
2017-Jul-19 22:00N 39°19' W 075°24'3 6.7
2017-Jul-19 21:30N 39°22' W 075°27'4 7.2
2017-Jul-19 21:00N 39°24' W 075°30'4 7.7
2017-Jul-19 20:30N 39°27' W 075°34'4 8.3
2017-Jul-19 20:00N 39°32' W 075°33'4 7.6
2017-Jul-19 19:30N 39°35' W 075°33'4 7.6
2017-Jul-19 19:00N 39°39' W 075°33'510.8
2017-Jul-19 18:30N 39°44' W 075°30'510.5
2017-Jul-19 18:00N 39°48' W 075°26'510.8
2017-Jul-19 17:30N 39°51' W 075°20'510.3
2017-Jul-19 17:00N 39°52' W 075°13'2 3.4
2017-Jul-19 16:28N 39°54' W 075°12'0 0.3
2017-Jul-19 15:59N 39°54' W 075°12'0 0.0
2017-Jul-19 15:30N 39°54' W 075°12'0 0.2
2017-Jul-19 14:59N 39°54' W 075°12'0 0.0
2017-Jul-19 14:29N 39°54' W 075°12'0 0.1
2017-Jul-19 13:59N 39°54' W 075°12'0 0.0
2017-Jul-19 13:30N 39°54' W 075°12'0 0.2
2017-Jul-19 13:00N 39°54' W 075°12'0 0.0
2017-Jul-19 12:28N 39°54' W 075°12'0 0.0
2017-Jul-19 11:58N 39°54' W 075°12'0 0.0
2017-Jul-19 11:29N 39°54' W 075°12'0 0.0
2017-Jul-19 10:59N 39°54' W 075°12'0 0.0
2017-Jul-19 10:29N 39°54' W 075°12'0 0.0
2017-Jul-19 10:00N 39°54' W 075°12'0 0.0
2017-Jul-19 09:30N 39°54' W 075°12'0 0.0
2017-Jul-19 08:57N 39°54' W 075°12'0 0.0
2017-Jul-19 08:31N 39°54' W 075°12'0 0.0
2017-Jul-19 07:58N 39°54' W 075°12'0 0.0
2017-Jul-19 07:28N 39°54' W 075°12'0 0.0
2017-Jul-19 06:59N 39°54' W 075°12'0 0.0
2017-Jul-19 06:29N 39°54' W 075°12'0 0.0
2017-Jul-19 05:59N 39°54' W 075°12'0 0.0
2017-Jul-19 05:17N 39°54' W 075°12'0 0.0
2017-Jul-19 05:00N 39°54' W 075°12'0 0.0
2017-Jul-19 04:30N 39°54' W 075°12'0 0.0
2017-Jul-19 04:00N 39°54' W 075°12'0 0.0
2017-Jul-19 03:28N 39°54' W 075°12'0 0.0
2017-Jul-19 02:58N 39°54' W 075°12'0 0.0
2017-Jul-19 02:29N 39°54' W 075°12'0 0.0
2017-Jul-19 01:56N 39°54' W 075°12'0 0.0
2017-Jul-19 01:29N 39°54' W 075°12'0 0.0
2017-Jul-19 01:00N 39°54' W 075°12'0 0.0
2017-Jul-19 00:27N 39°54' W 075°12'0 0.0
2017-Jul-19 00:00N 39°54' W 075°12'0 0.0
2017-Jul-18 23:28N 39°54' W 075°12'0 0.0
2017-Jul-18 22:58N 39°54' W 075°12'0 0.0
2017-Jul-18 22:28N 39°54' W 075°12'0 0.0
2017-Jul-18 21:58N 39°54' W 075°12'0 0.0
2017-Jul-18 21:29N 39°54' W 075°12'0 0.0
2017-Jul-18 21:01N 39°54' W 075°12'1 1.4
2017-Jul-18 20:31N 39°53' W 075°12'1 1.5
2017-Jul-18 20:01N 39°53' W 075°11'2 3.9
2017-Jul-18 19:28N 39°54' W 075°08'0 0.0
2017-Jul-18 19:01N 39°54' W 075°08'1 2.2
2017-Jul-18 18:30N 39°53' W 075°09'0 0.9
2017-Jul-18 18:00N 39°53' W 075°10'2 3.2
2017-Jul-18 17:31N 39°54' W 075°12'1 1.2
2017-Jul-18 16:59N 39°54' W 075°12'0 0.0
2017-Jul-18 16:29N 39°54' W 075°12'0 0.0
2017-Jul-18 15:59N 39°54' W 075°12'0 0.0
2017-Jul-18 15:30N 39°54' W 075°12'0 0.0
2017-Jul-18 15:00N 39°54' W 075°12'0 0.0
2017-Jul-18 14:00N 39°54' W 075°12'0 0.0
2017-Jul-18 13:28N 39°54' W 075°12'0 0.0
2017-Jul-18 12:55N 39°54' W 075°12'0 0.0
2017-Jul-18 12:29N 39°54' W 075°12'0 0.0
2017-Jul-18 12:01N 39°54' W 075°12'0 0.1
2017-Jul-18 11:29N 39°54' W 075°12'0 0.1
2017-Jul-18 10:59N 39°54' W 075°12'0 0.2
2017-Jul-18 10:28N 39°54' W 075°12'0 0.0
2017-Jul-18 09:58N 39°54' W 075°12'0 0.0
2017-Jul-18 09:29N 39°54' W 075°12'0 0.0
2017-Jul-18 08:59N 39°54' W 075°12'0 0.0
2017-Jul-18 08:29N 39°54' W 075°12'0 0.0
2017-Jul-18 07:59N 39°54' W 075°12'0 0.0
2017-Jul-18 07:30N 39°54' W 075°12'0 0.0
2017-Jul-18 07:00N 39°54' W 075°12'0 0.0
2017-Jul-18 06:30N 39°54' W 075°12'0 0.0
2017-Jul-18 05:58N 39°54' W 075°12'0 0.0
2017-Jul-18 05:28N 39°54' W 075°12'0 0.0
2017-Jul-18 04:59N 39°54' W 075°12'0 0.0
2017-Jul-18 04:29N 39°54' W 075°12'0 0.0
2017-Jul-18 03:59N 39°54' W 075°12'0 0.0
2017-Jul-18 03:30N 39°54' W 075°12'0 0.0
2017-Jul-18 03:00N 39°54' W 075°12'0 0.0
2017-Jul-18 02:30N 39°54' W 075°12'0 0.0
2017-Jul-18 02:00N 39°54' W 075°12'0 0.0
2017-Jul-18 01:28N 39°54' W 075°12'0 0.0
2017-Jul-18 00:58N 39°54' W 075°12'0 0.0
2017-Jul-18 00:29N 39°54' W 075°12'0 0.0
2017-Jul-17 23:59N 39°54' W 075°12'0 0.0
2017-Jul-17 23:29N 39°54' W 075°12'0 0.0
2017-Jul-17 23:00N 39°54' W 075°12'0 0.0
2017-Jul-17 22:30N 39°54' W 075°12'0 0.0
2017-Jul-17 22:00N 39°54' W 075°12'0 0.0
2017-Jul-17 21:30N 39°54' W 075°12'0 0.0
2017-Jul-17 20:58N 39°54' W 075°12'0 0.0
2017-Jul-17 20:28N 39°54' W 075°12'0 0.0
2017-Jul-17 20:00N 39°54' W 075°12'0 0.0
2017-Jul-17 19:30N 39°54' W 075°12'0 0.0
2017-Jul-17 19:00N 39°54' W 075°12'2 3.7
2017-Jul-17 18:31N 39°52' W 075°13'0 0.1
2017-Jul-17 18:00N 39°52' W 075°13'0 0.8
2017-Jul-17 17:31N 39°52' W 075°13'2 3.0
2017-Jul-17 16:59N 39°54' W 075°12'0 0.0
2017-Jul-17 16:26N 39°54' W 075°12'0 0.0
2017-Jul-17 15:58N 39°54' W 075°12'0 0.0
2017-Jul-17 15:29N 39°54' W 075°12'0 0.0
2017-Jul-17 14:59N 39°54' W 075°12'0 0.0
2017-Jul-17 14:29N 39°54' W 075°12'0 0.0
2017-Jul-17 14:00N 39°54' W 075°12'0 0.0
2017-Jul-17 13:30N 39°54' W 075°12'0 0.0
2017-Jul-17 13:00N 39°54' W 075°12'0 0.0
2017-Jul-17 12:30N 39°54' W 075°12'0 0.0
2017-Jul-17 11:58N 39°54' W 075°12'0 0.0
2017-Jul-17 11:28N 39°54' W 075°12'0 0.0
2017-Jul-17 10:59N 39°54' W 075°12'0 0.0
2017-Jul-17 10:29N 39°54' W 075°12'0 0.0
2017-Jul-17 09:59N 39°54' W 075°12'0 0.0
2017-Jul-17 09:30N 39°54' W 075°12'0 0.0
2017-Jul-17 09:00N 39°54' W 075°12'0 0.0
2017-Jul-17 08:30N 39°54' W 075°12'0 0.0
2017-Jul-17 08:00N 39°54' W 075°12'0 0.0
2017-Jul-17 07:28N 39°54' W 075°12'0 0.0
2017-Jul-17 06:58N 39°54' W 075°12'0 0.0
2017-Jul-17 06:29N 39°54' W 075°12'0 0.0
2017-Jul-17 05:59N 39°54' W 075°12'0 0.0
2017-Jul-17 05:29N 39°54' W 075°12'0 0.0
2017-Jul-17 05:00N 39°54' W 075°12'0 0.0
2017-Jul-17 04:30N 39°54' W 075°12'0 0.0
2017-Jul-17 04:00N 39°54' W 075°12'0 0.0
2017-Jul-17 03:30N 39°54' W 075°12'0 0.0
2017-Jul-17 02:58N 39°54' W 075°12'0 0.0
2017-Jul-17 02:28N 39°54' W 075°12'0 0.0
2017-Jul-17 01:59N 39°54' W 075°12'0 0.0
2017-Jul-17 01:29N 39°54' W 075°12'0 0.0
2017-Jul-17 00:59N 39°54' W 075°12'0 0.0
2017-Jul-17 00:27N 39°54' W 075°12'0 0.0
2017-Jul-17 00:00N 39°54' W 075°12'0 0.0
2017-Jul-16 23:30N 39°54' W 075°12'0 0.0
2017-Jul-16 22:58N 39°54' W 075°12'0 0.0
2017-Jul-16 22:28N 39°54' W 075°12'0 0.0
2017-Jul-16 21:58N 39°54' W 075°12'0 0.0
2017-Jul-16 21:29N 39°54' W 075°12'0 0.0
2017-Jul-16 20:59N 39°54' W 075°12'0 0.0
2017-Jul-16 20:29N 39°54' W 075°12'0 0.0
2017-Jul-16 20:00N 39°54' W 075°12'0 0.0
2017-Jul-16 19:30N 39°54' W 075°12'0 0.0
2017-Jul-16 19:00N 39°54' W 075°12'0 0.2
2017-Jul-16 18:30N 39°54' W 075°12'1 2.2
2017-Jul-16 18:00N 39°55' W 075°13'1 2.2
2017-Jul-16 17:30N 39°54' W 075°12'0 0.0
2017-Jul-16 17:00N 39°54' W 075°12'0 0.0
2017-Jul-16 16:30N 39°54' W 075°12'0 0.0
2017-Jul-16 16:00N 39°54' W 075°12'0 0.0
2017-Jul-16 15:30N 39°54' W 075°12'0 0.0
2017-Jul-16 15:00N 39°54' W 075°12'0 0.0
2017-Jul-16 14:29N 39°54' W 075°12'0 0.0
2017-Jul-16 14:01N 39°54' W 075°12'0 0.0
2017-Jul-16 13:30N 39°54' W 075°12'0 0.0
2017-Jul-16 13:00N 39°54' W 075°12'0 0.0
2017-Jul-16 12:30N 39°54' W 075°12'0 0.0
2017-Jul-16 12:00N 39°54' W 075°12'0 0.0
2017-Jul-16 11:31N 39°54' W 075°12'0 0.0
2017-Jul-16 11:00N 39°54' W 075°12'0 0.0
2017-Jul-16 10:31N 39°54' W 075°12'0 0.0
2017-Jul-16 10:00N 39°54' W 075°12'0 0.0
2017-Jul-16 09:30N 39°54' W 075°12'0 0.0
2017-Jul-16 09:00N 39°54' W 075°12'0 0.0
2017-Jul-16 08:30N 39°54' W 075°12'0 0.0
2017-Jul-16 08:00N 39°54' W 075°12'0 0.0
2017-Jul-16 07:30N 39°54' W 075°12'0 0.0
2017-Jul-16 07:01N 39°54' W 075°12'0 0.0
2017-Jul-16 06:31N 39°54' W 075°12'0 0.0
2017-Jul-16 06:00N 39°54' W 075°12'0 0.0
2017-Jul-16 05:30N 39°54' W 075°12'0 0.0
2017-Jul-16 05:01N 39°54' W 075°12'0 0.0
2017-Jul-16 04:30N 39°54' W 075°12'0 0.0
2017-Jul-16 04:00N 39°54' W 075°12'1 1.9
2017-Jul-16 03:31N 39°54' W 075°13'0 0.3
2017-Jul-16 03:00N 39°55' W 075°13'1 2.1
2017-Jul-16 02:31N 39°54' W 075°12'2 4.5
2017-Jul-16 02:01N 39°52' W 075°14'3 6.6
2017-Jul-16 01:30N 39°51' W 075°18'3 6.3
2017-Jul-16 01:01N 39°50' W 075°22'3 6.8
2017-Jul-16 00:30N 39°48' W 075°25'4 7.3
2017-Jul-16 00:00N 39°46' W 075°29'4 7.6
2017-Jul-15 23:30N 39°42' W 075°31'4 7.7
2017-Jul-15 23:01N 39°39' W 075°33'3 6.9
2017-Jul-15 22:31N 39°35' W 075°34'4 8.1
2017-Jul-15 22:00N 39°31' W 075°33'4 8.2
2017-Jul-15 21:30N 39°27' W 075°33'4 8.8
2017-Jul-15 21:00N 39°24' W 075°30'5 9.3
2017-Jul-15 20:30N 39°20' W 075°26'  

Dump ship's entire track history